sensor_id;sensor_type;location;lat;lon;timestamp;pressure;altitude;pressure_sealevel;temperature;humidity
4273;BME280;63887;53.656;9.810;2023-04-26T00:00:35;101420.25;;;4.55;84.24
4273;BME280;63887;53.656;9.810;2023-04-26T00:03:01;101423.00;;;4.47;84.24
4273;BME280;63887;53.656;9.810;2023-04-26T00:05:28;101432.19;;;4.65;83.83
4273;BME280;63887;53.656;9.810;2023-04-26T00:07:55;101441.16;;;4.93;82.21
4273;BME280;63887;53.656;9.810;2023-04-26T00:10:22;101421.84;;;5.03;82.53
4273;BME280;63887;53.656;9.810;2023-04-26T00:12:48;101428.69;;;5.09;81.72
4273;BME280;63887;53.656;9.810;2023-04-26T00:15:15;101429.16;;;4.86;83.51
4273;BME280;63887;53.656;9.810;2023-04-26T00:17:43;101432.22;;;5.06;82.40
4273;BME280;63887;53.656;9.810;2023-04-26T00:20:10;101431.50;;;4.98;83.50
4273;BME280;63887;53.656;9.810;2023-04-26T00:22:37;101423.25;;;4.78;83.97
4273;BME280;63887;53.656;9.810;2023-04-26T00:25:04;101426.56;;;4.41;85.56
4273;BME280;63887;53.656;9.810;2023-04-26T00:27:31;101431.22;;;4.23;87.46
4273;BME280;63887;53.656;9.810;2023-04-26T00:29:57;101430.56;;;4.11;88.08
4273;BME280;63887;53.656;9.810;2023-04-26T00:32:24;101429.00;;;4.01;89.10
4273;BME280;63887;53.656;9.810;2023-04-26T00:34:52;101422.94;;;4.01;89.37
4273;BME280;63887;53.656;9.810;2023-04-26T00:37:18;101435.34;;;3.83;91.55
4273;BME280;63887;53.656;9.810;2023-04-26T00:39:45;101431.88;;;3.84;90.55
4273;BME280;63887;53.656;9.810;2023-04-26T00:42:12;101434.44;;;3.87;90.48
4273;BME280;63887;53.656;9.810;2023-04-26T00:44:38;101437.88;;;3.89;91.60
4273;BME280;63887;53.656;9.810;2023-04-26T00:47:05;101429.00;;;4.01;90.89
4273;BME280;63887;53.656;9.810;2023-04-26T00:49:31;101425.56;;;3.99;90.00
4273;BME280;63887;53.656;9.810;2023-04-26T00:51:59;101421.00;;;4.13;89.57
4273;BME280;63887;53.656;9.810;2023-04-26T00:54:26;101430.88;;;3.93;89.88
4273;BME280;63887;53.656;9.810;2023-04-26T00:56:53;101425.09;;;3.76;90.44
4273;BME280;63887;53.656;9.810;2023-04-26T00:59:20;101425.00;;;4.33;88.50
4273;BME280;63887;53.656;9.810;2023-04-26T01:01:46;101420.84;;;4.23;87.80
4273;BME280;63887;53.656;9.810;2023-04-26T01:04:13;101427.28;;;4.02;89.19
4273;BME280;63887;53.656;9.810;2023-04-26T01:06:40;101437.22;;;3.75;90.08
4273;BME280;63887;53.656;9.810;2023-04-26T01:09:08;101434.72;;;3.69;90.91
4273;BME280;63887;53.656;9.810;2023-04-26T01:11:37;101433.22;;;3.53;90.66
4273;BME280;63887;53.656;9.810;2023-04-26T01:14:04;101429.56;;;3.66;89.81
4273;BME280;63887;53.656;9.810;2023-04-26T01:16:33;101434.91;;;3.58;90.52
4273;BME280;63887;53.656;9.810;2023-04-26T01:19:06;101430.81;;;3.41;91.18
4273;BME280;63887;53.656;9.810;2023-04-26T01:21:33;101436.84;;;3.44;91.40
4273;BME280;63887;53.656;9.810;2023-04-26T01:24:02;101444.63;;;3.44;91.33
4273;BME280;63887;53.656;9.810;2023-04-26T01:26:29;101440.31;;;3.43;92.25
4273;BME280;63887;53.656;9.810;2023-04-26T01:28:55;101434.69;;;3.72;89.69
4273;BME280;63887;53.656;9.810;2023-04-26T01:31:22;101427.25;;;3.49;91.52
4273;BME280;63887;53.656;9.810;2023-04-26T01:33:48;101440.31;;;3.42;90.95
4273;BME280;63887;53.656;9.810;2023-04-26T01:36:15;101440.16;;;3.52;91.10
4273;BME280;63887;53.656;9.810;2023-04-26T01:38:41;101442.88;;;3.45;91.31
4273;BME280;63887;53.656;9.810;2023-04-26T01:41:09;101447.09;;;3.50;90.97
4273;BME280;63887;53.656;9.810;2023-04-26T01:43:35;101448.69;;;3.61;90.15
4273;BME280;63887;53.656;9.810;2023-04-26T01:46:02;101437.31;;;3.69;90.15
4273;BME280;63887;53.656;9.810;2023-04-26T01:48:28;101443.44;;;3.65;90.12
4273;BME280;63887;53.656;9.810;2023-04-26T01:50:55;101434.00;;;3.61;89.87
4273;BME280;63887;53.656;9.810;2023-04-26T01:53:21;101445.28;;;3.58;90.13
4273;BME280;63887;53.656;9.810;2023-04-26T01:55:47;101452.50;;;3.94;88.66
4273;BME280;63887;53.656;9.810;2023-04-26T01:58:15;101459.19;;;4.07;88.45
4273;BME280;63887;53.656;9.810;2023-04-26T02:00:42;101471.28;;;4.09;87.86
4273;BME280;63887;53.656;9.810;2023-04-26T02:03:08;101475.38;;;4.23;87.16
4273;BME280;63887;53.656;9.810;2023-04-26T02:05:35;101470.38;;;4.10;88.12
4273;BME280;63887;53.656;9.810;2023-04-26T02:08:01;101467.69;;;4.15;89.01
4273;BME280;63887;53.656;9.810;2023-04-26T02:10:28;101474.19;;;4.40;87.85
4273;BME280;63887;53.656;9.810;2023-04-26T02:12:55;101474.00;;;4.00;89.11
4273;BME280;63887;53.656;9.810;2023-04-26T02:15:22;101472.88;;;4.18;90.00
4273;BME280;63887;53.656;9.810;2023-04-26T02:17:49;101465.19;;;4.10;88.46
4273;BME280;63887;53.656;9.810;2023-04-26T02:20:18;101458.06;;;4.23;88.24
4273;BME280;63887;53.656;9.810;2023-04-26T02:22:44;101455.09;;;3.94;90.11
4273;BME280;63887;53.656;9.810;2023-04-26T02:25:11;101458.91;;;3.73;91.58
4273;BME280;63887;53.656;9.810;2023-04-26T02:27:37;101461.94;;;3.98;91.17
4273;BME280;63887;53.656;9.810;2023-04-26T02:30:05;101456.78;;;3.96;90.27
4273;BME280;63887;53.656;9.810;2023-04-26T02:32:33;101465.75;;;3.75;90.44
4273;BME280;63887;53.656;9.810;2023-04-26T02:34:59;101460.13;;;3.47;92.31
4273;BME280;63887;53.656;9.810;2023-04-26T02:37:26;101460.16;;;3.46;91.76
4273;BME280;63887;53.656;9.810;2023-04-26T02:39:52;101448.16;;;3.37;91.72
4273;BME280;63887;53.656;9.810;2023-04-26T02:42:18;101451.63;;;3.36;91.69
4273;BME280;63887;53.656;9.810;2023-04-26T02:44:45;101445.69;;;3.29;92.96
4273;BME280;63887;53.656;9.810;2023-04-26T02:47:11;101452.75;;;3.18;93.55
4273;BME280;63887;53.656;9.810;2023-04-26T02:49:39;101447.66;;;3.09;94.32
4273;BME280;63887;53.656;9.810;2023-04-26T02:52:06;101454.66;;;3.03;94.91
4273;BME280;63887;53.656;9.810;2023-04-26T02:54:32;101466.44;;;3.28;93.55
4273;BME280;63887;53.656;9.810;2023-04-26T02:56:58;101462.09;;;3.30;93.93
4273;BME280;63887;53.656;9.810;2023-04-26T02:59:25;101460.63;;;3.09;93.35
4273;BME280;63887;53.656;9.810;2023-04-26T03:01:51;101463.94;;;3.20;93.45
4273;BME280;63887;53.656;9.810;2023-04-26T03:04:18;101453.47;;;3.26;94.16
4273;BME280;63887;53.656;9.810;2023-04-26T03:06:46;101454.34;;;3.27;94.12
4273;BME280;63887;53.656;9.810;2023-04-26T03:09:12;101456.06;;;3.26;94.57
4273;BME280;63887;53.656;9.810;2023-04-26T03:11:38;101462.28;;;3.16;94.60
4273;BME280;63887;53.656;9.810;2023-04-26T03:14:05;101455.66;;;3.55;92.63
4273;BME280;63887;53.656;9.810;2023-04-26T03:16:39;101460.19;;;3.43;94.53
4273;BME280;63887;53.656;9.810;2023-04-26T03:19:06;101462.38;;;3.70;92.59
4273;BME280;63887;53.656;9.810;2023-04-26T03:21:32;101455.88;;;3.40;92.81
4273;BME280;63887;53.656;9.810;2023-04-26T03:24:00;101460.03;;;3.52;92.02
4273;BME280;63887;53.656;9.810;2023-04-26T03:26:27;101464.44;;;3.47;92.28
4273;BME280;63887;53.656;9.810;2023-04-26T03:28:53;101457.16;;;3.70;92.17
4273;BME280;63887;53.656;9.810;2023-04-26T03:31:20;101456.63;;;3.50;92.38
4273;BME280;63887;53.656;9.810;2023-04-26T03:33:47;101456.56;;;3.53;92.88
4273;BME280;63887;53.656;9.810;2023-04-26T03:36:13;101457.16;;;3.70;90.83
4273;BME280;63887;53.656;9.810;2023-04-26T03:38:40;101455.81;;;3.46;91.92
4273;BME280;63887;53.656;9.810;2023-04-26T03:41:08;101449.97;;;3.89;89.89
4273;BME280;63887;53.656;9.810;2023-04-26T03:43:34;101452.25;;;3.53;90.68
4273;BME280;63887;53.656;9.810;2023-04-26T03:46:01;101451.66;;;3.35;91.21
4273;BME280;63887;53.656;9.810;2023-04-26T03:48:27;101459.72;;;3.15;92.38
4273;BME280;63887;53.656;9.810;2023-04-26T03:50:54;101452.91;;;3.05;93.01
4273;BME280;63887;53.656;9.810;2023-04-26T03:53:20;101450.38;;;3.00;94.25
4273;BME280;63887;53.656;9.810;2023-04-26T03:55:47;101459.44;;;3.33;92.66
4273;BME280;63887;53.656;9.810;2023-04-26T03:58:14;101449.06;;;3.35;92.23
4273;BME280;63887;53.656;9.810;2023-04-26T04:00:41;101453.50;;;3.25;92.85
4273;BME280;63887;53.656;9.810;2023-04-26T04:03:07;101465.75;;;3.12;94.26
4273;BME280;63887;53.656;9.810;2023-04-26T04:05:34;101463.84;;;3.26;94.20
4273;BME280;63887;53.656;9.810;2023-04-26T04:08:01;101462.03;;;3.35;92.98
4273;BME280;63887;53.656;9.810;2023-04-26T04:10:28;101458.44;;;3.42;91.99
4273;BME280;63887;53.656;9.810;2023-04-26T04:12:54;101458.41;;;3.46;92.18
4273;BME280;63887;53.656;9.810;2023-04-26T04:15:22;101468.19;;;3.26;93.78
4273;BME280;63887;53.656;9.810;2023-04-26T04:17:48;101468.00;;;3.38;93.24
4273;BME280;63887;53.656;9.810;2023-04-26T04:20:15;101468.81;;;3.45;93.02
4273;BME280;63887;53.656;9.810;2023-04-26T04:22:41;101468.88;;;3.39;94.05
4273;BME280;63887;53.656;9.810;2023-04-26T04:25:08;101475.56;;;3.55;93.30
4273;BME280;63887;53.656;9.810;2023-04-26T04:27:37;101474.69;;;3.57;92.90
4273;BME280;63887;53.656;9.810;2023-04-26T04:30:04;101480.22;;;3.92;91.37
4273;BME280;63887;53.656;9.810;2023-04-26T04:32:33;101479.63;;;4.27;89.54
4273;BME280;63887;53.656;9.810;2023-04-26T04:34:59;101492.19;;;3.99;90.25
4273;BME280;63887;53.656;9.810;2023-04-26T04:37:26;101486.09;;;4.01;89.84
4273;BME280;63887;53.656;9.810;2023-04-26T04:39:52;101492.19;;;4.02;89.48
4273;BME280;63887;53.656;9.810;2023-04-26T04:42:19;101489.59;;;3.99;91.36
4273;BME280;63887;53.656;9.810;2023-04-26T04:44:46;101492.41;;;3.85;92.01
4273;BME280;63887;53.656;9.810;2023-04-26T04:47:14;101494.13;;;3.86;90.77
4273;BME280;63887;53.656;9.810;2023-04-26T04:49:43;101492.16;;;4.00;90.67
4273;BME280;63887;53.656;9.810;2023-04-26T04:52:09;101482.59;;;4.05;90.39
4273;BME280;63887;53.656;9.810;2023-04-26T04:54:36;101484.38;;;4.00;91.62
4273;BME280;63887;53.656;9.810;2023-04-26T04:57:02;101481.00;;;3.95;91.46
4273;BME280;63887;53.656;9.810;2023-04-26T04:59:29;101471.00;;;4.25;90.06
4273;BME280;63887;53.656;9.810;2023-04-26T05:01:55;101476.81;;;3.88;91.85
4273;BME280;63887;53.656;9.810;2023-04-26T05:04:22;101476.63;;;3.99;91.53
4273;BME280;63887;53.656;9.810;2023-04-26T05:06:50;101477.44;;;4.01;91.36
4273;BME280;63887;53.656;9.810;2023-04-26T05:09:16;101478.38;;;3.98;91.32
4273;BME280;63887;53.656;9.810;2023-04-26T05:11:43;101470.09;;;4.27;90.56
4273;BME280;63887;53.656;9.810;2023-04-26T05:14:10;101475.63;;;4.57;87.88
4273;BME280;63887;53.656;9.810;2023-04-26T05:16:36;101480.59;;;4.21;89.43
4273;BME280;63887;53.656;9.810;2023-04-26T05:19:03;101479.22;;;3.99;90.45
4273;BME280;63887;53.656;9.810;2023-04-26T05:21:29;101481.13;;;3.89;90.90
4273;BME280;63887;53.656;9.810;2023-04-26T05:23:57;101485.22;;;4.04;91.03
4273;BME280;63887;53.656;9.810;2023-04-26T05:26:24;101491.91;;;4.18;90.67
4273;BME280;63887;53.656;9.810;2023-04-26T05:28:50;101489.63;;;4.96;89.90
4273;BME280;63887;53.656;9.810;2023-04-26T05:31:17;101501.88;;;5.31;87.90
4273;BME280;63887;53.656;9.810;2023-04-26T05:33:44;101501.56;;;5.85;85.29
4273;BME280;63887;53.656;9.810;2023-04-26T05:36:10;101494.47;;;5.54;84.41
4273;BME280;63887;53.656;9.810;2023-04-26T05:38:36;101486.00;;;5.83;82.68
4273;BME280;63887;53.656;9.810;2023-04-26T05:41:04;101480.25;;;5.69;84.32
4273;BME280;63887;53.656;9.810;2023-04-26T05:43:31;101497.75;;;6.01;83.02
4273;BME280;63887;53.656;9.810;2023-04-26T05:45:57;101487.94;;;5.74;82.96
4273;BME280;63887;53.656;9.810;2023-04-26T05:48:24;101497.00;;;5.94;83.03
4273;BME280;63887;53.656;9.810;2023-04-26T05:50:51;101501.31;;;6.33;80.88
4273;BME280;63887;53.656;9.810;2023-04-26T05:53:18;101501.56;;;5.85;81.67
4273;BME280;63887;53.656;9.810;2023-04-26T05:55:44;101499.63;;;5.96;82.81
4273;BME280;63887;53.656;9.810;2023-04-26T05:58:12;101505.28;;;6.47;81.90
4273;BME280;63887;53.656;9.810;2023-04-26T06:00:39;101503.75;;;7.91;77.96
4273;BME280;63887;53.656;9.810;2023-04-26T06:03:06;101495.56;;;9.49;73.07
4273;BME280;63887;53.656;9.810;2023-04-26T06:05:32;101492.53;;;11.45;63.34
4273;BME280;63887;53.656;9.810;2023-04-26T06:07:59;101491.97;;;12.29;59.75
4273;BME280;63887;53.656;9.810;2023-04-26T06:10:26;101486.91;;;13.74;54.38
4273;BME280;63887;53.656;9.810;2023-04-26T06:12:52;101486.28;;;12.89;54.07
4273;BME280;63887;53.656;9.810;2023-04-26T06:15:20;101498.22;;;11.54;59.39
4273;BME280;63887;53.656;9.810;2023-04-26T06:17:46;101483.72;;;12.37;58.12
4273;BME280;63887;53.656;9.810;2023-04-26T06:20:13;101491.81;;;12.49;55.95
4273;BME280;63887;53.656;9.810;2023-04-26T06:22:39;101484.69;;;13.02;53.62
4273;BME280;63887;53.656;9.810;2023-04-26T06:25:06;101474.59;;;17.20;43.03
4273;BME280;63887;53.656;9.810;2023-04-26T06:27:33;101484.44;;;16.02;43.59
4273;BME280;63887;53.656;9.810;2023-04-26T06:29:59;101488.41;;;16.09;44.56
4273;BME280;63887;53.656;9.810;2023-04-26T06:32:27;101472.97;;;15.47;46.82
4273;BME280;63887;53.656;9.810;2023-04-26T06:34:54;101480.56;;;14.97;47.06
4273;BME280;63887;53.656;9.810;2023-04-26T06:37:20;101488.19;;;15.30;47.43
4273;BME280;63887;53.656;9.810;2023-04-26T06:39:47;101483.22;;;16.20;42.29
4273;BME280;63887;53.656;9.810;2023-04-26T06:42:13;101481.06;;;16.65;42.39
4273;BME280;63887;53.656;9.810;2023-04-26T06:44:39;101480.38;;;18.22;39.11
4273;BME280;63887;53.656;9.810;2023-04-26T06:47:06;101484.31;;;17.45;39.40
4273;BME280;63887;53.656;9.810;2023-04-26T06:49:35;101483.75;;;16.78;41.68
4273;BME280;63887;53.656;9.810;2023-04-26T06:52:01;101483.22;;;17.47;39.44
4273;BME280;63887;53.656;9.810;2023-04-26T06:54:29;101486.53;;;17.38;40.34
4273;BME280;63887;53.656;9.810;2023-04-26T06:56:55;101478.53;;;18.11;38.44
4273;BME280;63887;53.656;9.810;2023-04-26T06:59:21;101485.50;;;17.65;39.20
4273;BME280;63887;53.656;9.810;2023-04-26T07:01:48;101486.72;;;17.48;39.01
4273;BME280;63887;53.656;9.810;2023-04-26T07:04:15;101494.66;;;18.67;38.59
4273;BME280;63887;53.656;9.810;2023-04-26T07:06:44;101478.44;;;16.90;40.43
4273;BME280;63887;53.656;9.810;2023-04-26T07:09:11;101478.09;;;17.70;39.58
4273;BME280;63887;53.656;9.810;2023-04-26T07:11:37;101480.63;;;16.46;42.78
4273;BME280;63887;53.656;9.810;2023-04-26T07:14:04;101488.53;;;16.33;44.33
4273;BME280;63887;53.656;9.810;2023-04-26T07:16:30;101494.97;;;16.16;41.53
4273;BME280;63887;53.656;9.810;2023-04-26T07:18:57;101489.88;;;16.53;42.01
4273;BME280;63887;53.656;9.810;2023-04-26T07:21:23;101499.44;;;15.19;45.05
4273;BME280;63887;53.656;9.810;2023-04-26T07:23:53;101495.66;;;14.95;46.62
4273;BME280;63887;53.656;9.810;2023-04-26T07:26:20;101487.59;;;14.23;47.14
4273;BME280;63887;53.656;9.810;2023-04-26T07:28:47;101505.91;;;14.11;48.21
4273;BME280;63887;53.656;9.810;2023-04-26T07:31:13;101504.44;;;13.75;48.04
4273;BME280;63887;53.656;9.810;2023-04-26T07:33:40;101505.06;;;12.65;51.34
4273;BME280;63887;53.656;9.810;2023-04-26T07:36:07;101519.94;;;11.77;55.05
4273;BME280;63887;53.656;9.810;2023-04-26T07:38:34;101541.31;;;11.50;55.82
4273;BME280;63887;53.656;9.810;2023-04-26T07:41:01;101552.69;;;10.51;60.17
4273;BME280;63887;53.656;9.810;2023-04-26T07:43:29;101558.34;;;9.51;64.72
4273;BME280;63887;53.656;9.810;2023-04-26T07:45:58;101553.75;;;8.86;67.52
4273;BME280;63887;53.656;9.810;2023-04-26T07:48:25;101559.28;;;8.52;68.74
4273;BME280;63887;53.656;9.810;2023-04-26T07:50:51;101548.69;;;8.81;66.09
4273;BME280;63887;53.656;9.810;2023-04-26T07:53:18;101541.78;;;9.04;67.79
4273;BME280;63887;53.656;9.810;2023-04-26T07:55:44;101545.22;;;8.81;69.57
4273;BME280;63887;53.656;9.810;2023-04-26T07:58:12;101543.97;;;9.16;65.17
4273;BME280;63887;53.656;9.810;2023-04-26T08:00:39;101551.25;;;9.54;64.19
4273;BME280;63887;53.656;9.810;2023-04-26T08:03:05;101540.66;;;9.34;64.72
4273;BME280;63887;53.656;9.810;2023-04-26T08:05:32;101549.06;;;9.19;64.11
4273;BME280;63887;53.656;9.810;2023-04-26T08:07:59;101545.84;;;9.36;62.86
4273;BME280;63887;53.656;9.810;2023-04-26T08:10:26;101547.22;;;9.69;62.54
4273;BME280;63887;53.656;9.810;2023-04-26T08:12:52;101552.53;;;9.66;64.92
4273;BME280;63887;53.656;9.810;2023-04-26T08:15:22;101555.06;;;9.69;69.17
4273;BME280;63887;53.656;9.810;2023-04-26T08:17:48;101554.91;;;10.18;66.39
4273;BME280;63887;53.656;9.810;2023-04-26T08:20:17;101552.28;;;10.18;64.08
4273;BME280;63887;53.656;9.810;2023-04-26T08:22:43;101560.56;;;10.07;67.60
4273;BME280;63887;53.656;9.810;2023-04-26T08:25:10;101544.53;;;10.36;68.54
4273;BME280;63887;53.656;9.810;2023-04-26T08:27:36;101540.94;;;10.39;67.66
4273;BME280;63887;53.656;9.810;2023-04-26T08:30:05;101543.06;;;10.92;66.13
4273;BME280;63887;53.656;9.810;2023-04-26T08:32:33;101539.28;;;10.79;63.01
4273;BME280;63887;53.656;9.810;2023-04-26T08:34:59;101545.47;;;10.96;65.12
4273;BME280;63887;53.656;9.810;2023-04-26T08:37:27;101543.63;;;10.37;59.99
4273;BME280;63887;53.656;9.810;2023-04-26T08:39:53;101545.75;;;10.70;63.65
4273;BME280;63887;53.656;9.810;2023-04-26T08:42:23;101535.53;;;10.43;63.36
4273;BME280;63887;53.656;9.810;2023-04-26T08:44:52;101542.06;;;10.54;61.85
4273;BME280;63887;53.656;9.810;2023-04-26T08:47:21;101541.72;;;10.41;60.18
4273;BME280;63887;53.656;9.810;2023-04-26T08:49:53;101550.63;;;10.37;60.57
4273;BME280;63887;53.656;9.810;2023-04-26T08:52:26;101552.69;;;10.30;58.97
4273;BME280;63887;53.656;9.810;2023-04-26T08:54:53;101549.50;;;10.00;57.28
4273;BME280;63887;53.656;9.810;2023-04-26T08:57:23;101548.25;;;9.87;60.99
4273;BME280;63887;53.656;9.810;2023-04-26T08:59:50;101550.50;;;10.40;57.83
4273;BME280;63887;53.656;9.810;2023-04-26T09:02:18;101551.31;;;10.42;55.81
4273;BME280;63887;53.656;9.810;2023-04-26T09:04:45;101552.91;;;10.24;53.67
4273;BME280;63887;53.656;9.810;2023-04-26T09:07:19;101548.03;;;10.37;52.04
4273;BME280;63887;53.656;9.810;2023-04-26T09:09:48;101559.13;;;10.22;51.36
4273;BME280;63887;53.656;9.810;2023-04-26T09:12:17;101542.03;;;10.11;54.28
4273;BME280;63887;53.656;9.810;2023-04-26T09:14:43;101546.88;;;10.22;51.37
4273;BME280;63887;53.656;9.810;2023-04-26T09:17:25;101546.66;;;10.69;53.74
4273;BME280;63887;53.656;9.810;2023-04-26T09:19:52;101549.84;;;10.77;54.58
4273;BME280;63887;53.656;9.810;2023-04-26T09:22:31;101543.31;;;11.06;54.95
4273;BME280;63887;53.656;9.810;2023-04-26T09:24:58;101546.63;;;10.91;52.65
4273;BME280;63887;53.656;9.810;2023-04-26T09:27:35;101540.25;;;10.96;55.00
4273;BME280;63887;53.656;9.810;2023-04-26T09:30:05;101542.22;;;10.91;60.38
4273;BME280;63887;53.656;9.810;2023-04-26T09:32:46;101535.00;;;10.96;53.93
4273;BME280;63887;53.656;9.810;2023-04-26T09:35:24;101544.97;;;10.68;56.01
4273;BME280;63887;53.656;9.810;2023-04-26T09:37:56;101549.03;;;10.55;57.16
4273;BME280;63887;53.656;9.810;2023-04-26T09:40:25;101545.91;;;10.87;51.43
4273;BME280;63887;53.656;9.810;2023-04-26T09:43:00;101533.75;;;11.05;53.83
4273;BME280;63887;53.656;9.810;2023-04-26T09:45:29;101555.69;;;11.23;49.73
4273;BME280;63887;53.656;9.810;2023-04-26T09:48:12;101553.91;;;11.23;52.56
4273;BME280;63887;53.656;9.810;2023-04-26T09:50:38;101551.13;;;11.08;53.13
4273;BME280;63887;53.656;9.810;2023-04-26T09:53:06;101566.25;;;11.02;51.52
4273;BME280;63887;53.656;9.810;2023-04-26T09:55:33;101566.81;;;10.68;50.54
4273;BME280;63887;53.656;9.810;2023-04-26T09:58:07;101573.38;;;10.79;51.75
4273;BME280;63887;53.656;9.810;2023-04-26T10:00:36;101576.25;;;10.52;48.81
4273;BME280;63887;53.656;9.810;2023-04-26T10:03:04;101575.41;;;10.92;51.84
4273;BME280;63887;53.656;9.810;2023-04-26T10:05:32;101573.19;;;10.63;51.68
4273;BME280;63887;53.656;9.810;2023-04-26T10:07:59;101577.66;;;10.39;53.11
4273;BME280;63887;53.656;9.810;2023-04-26T10:10:29;101567.31;;;10.56;51.32
4273;BME280;63887;53.656;9.810;2023-04-26T10:12:56;101566.28;;;10.60;53.13
4273;BME280;63887;53.656;9.810;2023-04-26T10:15:22;101565.59;;;10.55;54.26
4273;BME280;63887;53.656;9.810;2023-04-26T10:17:49;101564.88;;;10.73;52.87
4273;BME280;63887;53.656;9.810;2023-04-26T10:20:17;101567.03;;;11.04;52.13
4273;BME280;63887;53.656;9.810;2023-04-26T10:22:51;101576.06;;;10.97;55.21
4273;BME280;63887;53.656;9.810;2023-04-26T10:25:18;101576.66;;;11.04;53.20
4273;BME280;63887;53.656;9.810;2023-04-26T10:27:52;101581.13;;;11.02;53.61
4273;BME280;63887;53.656;9.810;2023-04-26T10:30:20;101574.91;;;11.04;53.99
4273;BME280;63887;53.656;9.810;2023-04-26T10:33:15;101600.78;;;11.12;52.59
4273;BME280;63887;53.656;9.810;2023-04-26T10:36:02;101592.75;;;10.76;56.05
4273;BME280;63887;53.656;9.810;2023-04-26T10:38:29;101610.81;;;10.40;58.05
4273;BME280;63887;53.656;9.810;2023-04-26T10:41:26;101605.19;;;9.83;61.36
4273;BME280;63887;53.656;9.810;2023-04-26T10:43:55;101598.50;;;9.75;59.78
4273;BME280;63887;53.656;9.810;2023-04-26T10:46:37;101594.91;;;9.77;59.71
4273;BME280;63887;53.656;9.810;2023-04-26T10:49:14;101608.13;;;9.98;57.50
4273;BME280;63887;53.656;9.810;2023-04-26T10:52:07;101590.97;;;10.11;59.51
4273;BME280;63887;53.656;9.810;2023-04-26T10:54:54;101590.97;;;10.11;60.30
4273;BME280;63887;53.656;9.810;2023-04-26T10:57:22;101593.00;;;10.28;59.06
4273;BME280;63887;53.656;9.810;2023-04-26T11:02:57;101576.63;;;10.21;60.99
4273;BME280;63887;53.656;9.810;2023-04-26T11:08:25;101584.59;;;10.18;49.67
4273;BME280;63887;53.656;9.810;2023-04-26T11:10:57;101584.09;;;9.86;50.25
4273;BME280;63887;53.656;9.810;2023-04-26T11:13:24;101582.53;;;9.81;53.13
4273;BME280;63887;53.656;9.810;2023-04-26T11:15:51;101584.66;;;10.16;52.17
4273;BME280;63887;53.656;9.810;2023-04-26T11:18:20;101583.88;;;10.36;52.47
4273;BME280;63887;53.656;9.810;2023-04-26T11:20:47;101580.97;;;10.44;52.92
4273;BME280;63887;53.656;9.810;2023-04-26T11:23:14;101582.88;;;10.81;52.35
4273;BME280;63887;53.656;9.810;2023-04-26T11:25:40;101591.88;;;10.96;49.50
4273;BME280;63887;53.656;9.810;2023-04-26T11:28:07;101581.25;;;10.99;46.67
4273;BME280;63887;53.656;9.810;2023-04-26T11:30:33;101584.00;;;10.75;47.62
4273;BME280;63887;53.656;9.810;2023-04-26T11:33:00;101587.47;;;10.96;47.69
4273;BME280;63887;53.656;9.810;2023-04-26T11:35:32;101579.88;;;10.90;48.80
4273;BME280;63887;53.656;9.810;2023-04-26T11:38:02;101589.84;;;10.82;51.59
4273;BME280;63887;53.656;9.810;2023-04-26T11:40:30;101588.94;;;11.03;51.29
4273;BME280;63887;53.656;9.810;2023-04-26T11:43:00;101585.91;;;11.13;50.19
4273;BME280;63887;53.656;9.810;2023-04-26T11:45:27;101585.81;;;11.14;53.49
4273;BME280;63887;53.656;9.810;2023-04-26T11:47:54;101573.63;;;11.13;52.88
4273;BME280;63887;53.656;9.810;2023-04-26T11:50:21;101582.50;;;11.11;52.66
4273;BME280;63887;53.656;9.810;2023-04-26T11:52:53;101575.94;;;10.80;53.62
4273;BME280;63887;53.656;9.810;2023-04-26T11:55:23;101575.13;;;10.98;52.67
4273;BME280;63887;53.656;9.810;2023-04-26T11:57:50;101583.63;;;11.05;52.00
4273;BME280;63887;53.656;9.810;2023-04-26T12:00:17;101582.75;;;10.84;50.05
4273;BME280;63887;53.656;9.810;2023-04-26T12:02:44;101582.88;;;10.81;51.60
4273;BME280;63887;53.656;9.810;2023-04-26T12:05:20;101580.69;;;10.72;49.03
4273;BME280;63887;53.656;9.810;2023-04-26T12:07:49;101585.16;;;10.48;49.69
4273;BME280;63887;53.656;9.810;2023-04-26T12:10:18;101585.34;;;10.43;49.09
4273;BME280;63887;53.656;9.810;2023-04-26T12:12:48;101587.88;;;10.67;49.90
4273;BME280;63887;53.656;9.810;2023-04-26T12:15:16;101587.00;;;10.46;49.14
4273;BME280;63887;53.656;9.810;2023-04-26T12:17:53;101602.31;;;10.77;51.90
4273;BME280;63887;53.656;9.810;2023-04-26T12:20:31;101598.59;;;11.03;50.46
4273;BME280;63887;53.656;9.810;2023-04-26T12:22:58;101609.59;;;10.91;48.80
4273;BME280;63887;53.656;9.810;2023-04-26T12:25:27;101608.78;;;10.68;48.24
4273;BME280;63887;53.656;9.810;2023-04-26T12:27:53;101617.66;;;10.66;50.83
4273;BME280;63887;53.656;9.810;2023-04-26T12:30:20;101611.03;;;10.35;50.35
4273;BME280;63887;53.656;9.810;2023-04-26T12:32:47;101620.72;;;10.10;52.54
4273;BME280;63887;53.656;9.810;2023-04-26T12:35:14;101617.25;;;10.09;51.63
4273;BME280;63887;53.656;9.810;2023-04-26T12:37:40;101612.97;;;10.30;52.82
4273;BME280;63887;53.656;9.810;2023-04-26T12:40:08;101618.94;;;10.56;52.88
4273;BME280;63887;53.656;9.810;2023-04-26T12:42:36;101611.75;;;10.39;52.75
4273;BME280;63887;53.656;9.810;2023-04-26T12:45:03;101613.03;;;10.51;54.02
4273;BME280;63887;53.656;9.810;2023-04-26T12:47:30;101617.34;;;10.73;53.65
4273;BME280;63887;53.656;9.810;2023-04-26T12:49:56;101614.72;;;10.73;52.49
4273;BME280;63887;53.656;9.810;2023-04-26T12:52:25;101616.28;;;10.98;53.86
4273;BME280;63887;53.656;9.810;2023-04-26T12:54:51;101615.09;;;10.85;51.30
4273;BME280;63887;53.656;9.810;2023-04-26T12:57:18;101634.16;;;10.90;49.50
4273;BME280;63887;53.656;9.810;2023-04-26T12:59:46;101616.50;;;10.73;48.17
4273;BME280;63887;53.656;9.810;2023-04-26T13:02:12;101620.09;;;10.49;49.16
4273;BME280;63887;53.656;9.810;2023-04-26T13:04:39;101622.00;;;10.23;48.64
4273;BME280;63887;53.656;9.810;2023-04-26T13:07:05;101625.31;;;10.05;50.57
4273;BME280;63887;53.656;9.810;2023-04-26T13:09:32;101618.34;;;10.04;50.10
4273;BME280;63887;53.656;9.810;2023-04-26T13:12:00;101620.78;;;10.08;50.08
4273;BME280;63887;53.656;9.810;2023-04-26T13:14:26;101631.22;;;10.10;50.98